EGWN weather

RAF Halton
Halton, England, United Kingdom

Public forecast

Using degrees Celsius for public forecast. Weather courtesy of forecast.io.

Closest aviation weather report (METAR) to RAF Halton

Report is more than 2 hours old.

Closest report is London Luton Airport, 14.6 nm (27.1 km) ENE. Retrieved 2019/10/22 12:50 UTC (2 hours ago):

EGGW 221250Z AUTO 23010KT 9999 FEW034 13/06 Q1023

Closest aviation forecast (TAF) to RAF Halton

Closest forecast is London Luton Airport, 14.6 nm (27.1 km) ENE. Retrieved 2019/10/22 12:00 UTC (3 hours ago):

TAF EGGW 221058Z 2212/2312 24005KT 9999 FEW035 BECMG 2220/2223 6000 BECMG 2223/2302 4000 BR PROB30 2301/2308 0300 FG BKN000 BECMG 2308/2311 9999 NSW PROB30 TEMPO 2308/2312 -RA BKN002